Terminal Aerodrome Forecast
Issued by NWS

Current Version | Previous Version | Text Only | Print | Product List | Glossary On
Versions: 1 2 3 4 5 6 7 8 9 10 11
000
FTAK31 PAJN 012300
TAFAWG
TAF
PAWG 012320Z 0200/0224 VRB05KT P6SM SCT035 SCT050
     FM021200 10009KT P6SM FEW100
     FM022100 10012KT P6SM VCSH OVC050
      AMD LTD TO CLD VIS AND WIND 0206/0215=

USA.gov is the U.S. government's official web portal to all federal, state and local government web resources and services.